FIN444 EDDF-EGCC
Flight info
| Callsign | FIN444 |
|---|---|
| Flight time | 1h 18m |
| Altitude | 34000 |
| Route | OBOKA5G OBOKA Z28 DIBIR DCT BUDIP DCT RAVLO Y70 OTBED |
| Aircraft | A359/H-SDE2E3GHIJ3J4J5LM1ORWXY/LB1D1 |
Departure
| Time | 2026-04-16 12:09 |
|---|---|
| Airport | Frankfurt Main Airport (EDDF) |
Arrival
| Time | 2026-04-16 13:27 |
|---|---|
| Airport | Manchester Airport (EGCC) |
| Time | Latitude | Longitude | Altitude | Speed | Heading |
|---|---|---|---|---|---|
| 2026-04-16 11:50 | 50.04961 | 8.58295 | 369 ft | 0 kts | 339° |
| 2026-04-16 12:01 | 50.04956 | 8.58298 | 365 ft | 3 kts | 339° |
| 2026-04-16 12:01 | 50.04931 | 8.58313 | 368 ft | 4 kts | 339° |
| 2026-04-16 12:01 | 50.04906 | 8.58327 | 365 ft | 3 kts | 340° |
| 2026-04-16 12:02 | 50.04866 | 8.58307 | 368 ft | 4 kts | 60° |
| 2026-04-16 12:02 | 50.04854 | 8.58269 | 369 ft | 4 kts | 69° |
| 2026-04-16 12:02 | 50.04849 | 8.58248 | 367 ft | 0 kts | 69° |
| 2026-04-16 12:06 | 50.04854 | 8.58269 | 366 ft | 9 kts | 70° |
| 2026-04-16 12:06 | 50.04895 | 8.58441 | 372 ft | 20 kts | 71° |
| 2026-04-16 12:06 | 50.04928 | 8.58633 | 372 ft | 14 kts | 113° |
| 2026-04-16 12:07 | 50.04848 | 8.58707 | 370 ft | 13 kts | 159° |
| 2026-04-16 12:07 | 50.04770 | 8.58752 | 377 ft | 11 kts | 160° |
| 2026-04-16 12:07 | 50.04688 | 8.58764 | 376 ft | 14 kts | 184° |
| 2026-04-16 12:07 | 50.04576 | 8.58708 | 377 ft | 20 kts | 218° |
| 2026-04-16 12:08 | 50.04475 | 8.58536 | 376 ft | 22 kts | 246° |
| 2026-04-16 12:08 | 50.04386 | 8.58167 | 374 ft | 64 kts | 249° |
| 2026-04-16 12:08 | 50.04157 | 8.57210 | 377 ft | 123 kts | 250° |
| 2026-04-16 12:08 | 50.03799 | 8.55703 | 421 ft | 166 kts | 251° |
| 2026-04-16 12:09 | 50.03398 | 8.54040 | 1135 ft | 163 kts | 247° |
| 2026-04-16 12:09 | 50.02933 | 8.52331 | 1583 ft | 179 kts | 246° |
| 2026-04-16 12:09 | 50.02509 | 8.50481 | 1939 ft | 188 kts | 254° |
| 2026-04-16 12:09 | 50.02354 | 8.48397 | 2208 ft | 205 kts | 275° |
| 2026-04-16 12:10 | 50.02628 | 8.46168 | 2578 ft | 215 kts | 281° |
| 2026-04-16 12:10 | 50.02775 | 8.43827 | 3115 ft | 222 kts | 267° |
| 2026-04-16 12:10 | 50.02611 | 8.41340 | 3440 ft | 241 kts | 261° |
| 2026-04-16 12:10 | 50.02331 | 8.38700 | 3889 ft | 251 kts | 259° |
| 2026-04-16 12:11 | 50.02020 | 8.36013 | 4580 ft | 253 kts | 259° |
| 2026-04-16 12:11 | 50.01703 | 8.33318 | 5225 ft | 256 kts | 259° |
| 2026-04-16 12:11 | 50.01388 | 8.30572 | 5857 ft | 259 kts | 261° |
| 2026-04-16 12:11 | 50.01406 | 8.27772 | 6495 ft | 261 kts | 282° |
| 2026-04-16 12:12 | 50.02012 | 8.25100 | 7121 ft | 263 kts | 293° |
| 2026-04-16 12:12 | 50.02778 | 8.22499 | 7743 ft | 266 kts | 294° |
| 2026-04-16 12:12 | 50.03564 | 8.19872 | 8347 ft | 270 kts | 293° |
| 2026-04-16 12:12 | 50.04343 | 8.17241 | 8966 ft | 272 kts | 293° |
| 2026-04-16 12:13 | 50.05132 | 8.14552 | 9606 ft | 275 kts | 293° |
| 2026-04-16 12:13 | 50.06023 | 8.11900 | 10243 ft | 279 kts | 302° |
| 2026-04-16 12:13 | 50.07190 | 8.09433 | 10610 ft | 290 kts | 306° |
| 2026-04-16 12:13 | 50.08489 | 8.06915 | 10849 ft | 305 kts | 307° |
| 2026-04-16 12:14 | 50.09859 | 8.04286 | 11108 ft | 319 kts | 307° |
| 2026-04-16 12:14 | 50.11282 | 8.01540 | 11371 ft | 332 kts | 307° |
| 2026-04-16 12:14 | 50.12758 | 7.98678 | 11629 ft | 345 kts | 307° |
| 2026-04-16 12:14 | 50.14285 | 7.95715 | 11908 ft | 354 kts | 307° |
| 2026-04-16 12:15 | 50.15838 | 7.92697 | 12386 ft | 358 kts | 307° |
| 2026-04-16 12:15 | 50.17397 | 7.89660 | 12918 ft | 359 kts | 307° |
| 2026-04-16 12:15 | 50.18959 | 7.86610 | 13468 ft | 361 kts | 307° |
| 2026-04-16 12:15 | 50.20527 | 7.83544 | 13988 ft | 362 kts | 307° |
| 2026-04-16 12:16 | 50.22100 | 7.80464 | 14403 ft | 365 kts | 307° |
| 2026-04-16 12:16 | 50.23696 | 7.77345 | 14787 ft | 368 kts | 307° |
| 2026-04-16 12:16 | 50.25486 | 7.74455 | 15221 ft | 373 kts | 318° |
| 2026-04-16 12:16 | 50.27693 | 7.72289 | 15663 ft | 378 kts | 331° |
| 2026-04-16 12:17 | 50.30098 | 7.70577 | 16093 ft | 381 kts | 333° |
| 2026-04-16 12:17 | 50.32544 | 7.68925 | 16545 ft | 383 kts | 333° |
| 2026-04-16 12:17 | 50.34999 | 7.67267 | 16971 ft | 385 kts | 333° |
| 2026-04-16 12:17 | 50.37463 | 7.65595 | 17409 ft | 387 kts | 333° |
| 2026-04-16 12:18 | 50.39939 | 7.63904 | 17844 ft | 389 kts | 333° |
| 2026-04-16 12:18 | 50.42423 | 7.62199 | 18254 ft | 391 kts | 333° |
| 2026-04-16 12:18 | 50.44928 | 7.60475 | 18638 ft | 393 kts | 333° |
| 2026-04-16 12:18 | 50.47402 | 7.58770 | 18984 ft | 395 kts | 333° |
| 2026-04-16 12:19 | 50.49933 | 7.57026 | 19362 ft | 397 kts | 333° |
| 2026-04-16 12:19 | 50.52458 | 7.55283 | 19745 ft | 397 kts | 333° |
| 2026-04-16 12:19 | 50.54988 | 7.53501 | 20102 ft | 398 kts | 330° |
| 2026-04-16 12:19 | 50.57392 | 7.51358 | 20460 ft | 397 kts | 324° |
| 2026-04-16 12:20 | 50.59725 | 7.49004 | 20819 ft | 398 kts | 324° |
| 2026-04-16 12:20 | 50.62046 | 7.46618 | 21145 ft | 399 kts | 323° |
| 2026-04-16 12:20 | 50.64376 | 7.44222 | 21510 ft | 401 kts | 323° |
| 2026-04-16 12:20 | 50.66717 | 7.41816 | 21872 ft | 402 kts | 323° |
| 2026-04-16 12:21 | 50.69065 | 7.39400 | 22198 ft | 403 kts | 323° |
| 2026-04-16 12:21 | 50.71423 | 7.36973 | 22512 ft | 405 kts | 323° |
| 2026-04-16 12:21 | 50.73693 | 7.34354 | 22841 ft | 404 kts | 316° |
| 2026-04-16 12:21 | 50.75638 | 7.31183 | 23158 ft | 402 kts | 307° |
| 2026-04-16 12:22 | 50.77369 | 7.27695 | 23476 ft | 403 kts | 304° |
| 2026-04-16 12:22 | 50.79010 | 7.24091 | 23776 ft | 404 kts | 303° |
| 2026-04-16 12:22 | 50.80589 | 7.20482 | 24036 ft | 405 kts | 302° |
| 2026-04-16 12:22 | 50.82182 | 7.16799 | 24293 ft | 407 kts | 302° |
| 2026-04-16 12:23 | 50.83785 | 7.13103 | 24562 ft | 408 kts | 302° |
| 2026-04-16 12:23 | 50.85406 | 7.09394 | 24820 ft | 409 kts | 303° |
| 2026-04-16 12:23 | 50.87036 | 7.05689 | 25074 ft | 411 kts | 303° |
| 2026-04-16 12:23 | 50.88677 | 7.01975 | 25304 ft | 413 kts | 303° |
| 2026-04-16 12:24 | 50.90327 | 6.98250 | 25561 ft | 414 kts | 303° |
| 2026-04-16 12:24 | 50.91987 | 6.94510 | 25830 ft | 415 kts | 303° |
| 2026-04-16 12:24 | 50.93648 | 6.90756 | 26103 ft | 416 kts | 303° |
| 2026-04-16 12:24 | 50.95311 | 6.86991 | 26377 ft | 418 kts | 302° |
| 2026-04-16 12:25 | 50.96979 | 6.83204 | 26657 ft | 419 kts | 302° |
| 2026-04-16 12:25 | 50.98654 | 6.79396 | 26943 ft | 421 kts | 302° |
| 2026-04-16 12:25 | 51.00331 | 6.75578 | 27234 ft | 422 kts | 302° |
| 2026-04-16 12:25 | 51.02010 | 6.71749 | 27529 ft | 424 kts | 302° |
| 2026-04-16 12:26 | 51.03698 | 6.67896 | 27827 ft | 425 kts | 302° |
| 2026-04-16 12:26 | 51.05389 | 6.64030 | 28125 ft | 427 kts | 302° |
| 2026-04-16 12:26 | 51.07066 | 6.60192 | 28424 ft | 429 kts | 302° |
| 2026-04-16 12:26 | 51.08790 | 6.56238 | 28750 ft | 430 kts | 302° |
| 2026-04-16 12:27 | 51.10477 | 6.52367 | 29059 ft | 432 kts | 302° |
| 2026-04-16 12:27 | 51.12192 | 6.48423 | 29371 ft | 434 kts | 302° |
| 2026-04-16 12:27 | 51.13910 | 6.44461 | 29682 ft | 436 kts | 302° |
| 2026-04-16 12:27 | 51.15634 | 6.40481 | 29986 ft | 437 kts | 302° |
| 2026-04-16 12:28 | 51.17362 | 6.36487 | 30384 ft | 438 kts | 301° |
| 2026-04-16 12:28 | 51.19086 | 6.32497 | 30727 ft | 437 kts | 301° |
| 2026-04-16 12:28 | 51.20809 | 6.28503 | 31011 ft | 438 kts | 302° |
| 2026-04-16 12:28 | 51.22538 | 6.24486 | 31283 ft | 439 kts | 302° |
| 2026-04-16 12:29 | 51.24267 | 6.20466 | 31554 ft | 440 kts | 302° |
| 2026-04-16 12:29 | 51.25998 | 6.16434 | 31893 ft | 439 kts | 302° |
| 2026-04-16 12:29 | 51.27714 | 6.12431 | 32377 ft | 435 kts | 302° |
| 2026-04-16 12:29 | 51.29403 | 6.08455 | 32823 ft | 431 kts | 301° |
| 2026-04-16 12:30 | 51.31047 | 6.04465 | 33254 ft | 428 kts | 301° |
| 2026-04-16 12:30 | 51.32664 | 6.00483 | 33666 ft | 425 kts | 301° |
| 2026-04-16 12:30 | 51.34263 | 5.96527 | 34082 ft | 423 kts | 301° |
| 2026-04-16 12:30 | 51.35862 | 5.92570 | 34213 ft | 424 kts | 301° |
| 2026-04-16 12:31 | 51.39435 | 5.85045 | 34211 ft | 427 kts | 309° |
| 2026-04-16 12:31 | 51.43477 | 5.78042 | 34229 ft | 428 kts | 310° |
| 2026-04-16 12:32 | 51.47592 | 5.71121 | 34209 ft | 427 kts | 310° |
| 2026-04-16 12:32 | 51.51669 | 5.64263 | 34210 ft | 427 kts | 310° |
| 2026-04-16 12:33 | 51.55758 | 5.57339 | 34209 ft | 427 kts | 310° |
| 2026-04-16 12:33 | 51.59835 | 5.50402 | 34210 ft | 427 kts | 310° |
| 2026-04-16 12:34 | 51.63907 | 5.43451 | 34208 ft | 426 kts | 310° |
| 2026-04-16 12:34 | 51.67969 | 5.36500 | 34207 ft | 426 kts | 310° |
| 2026-04-16 12:35 | 51.72036 | 5.29522 | 34205 ft | 426 kts | 309° |
| 2026-04-16 12:35 | 51.76085 | 5.22555 | 34203 ft | 425 kts | 309° |
| 2026-04-16 12:36 | 51.80124 | 5.15583 | 34203 ft | 425 kts | 309° |
| 2026-04-16 12:36 | 51.84137 | 5.08638 | 34203 ft | 425 kts | 309° |
| 2026-04-16 12:37 | 51.88178 | 5.01626 | 34200 ft | 425 kts | 309° |
| 2026-04-16 12:37 | 51.92204 | 4.94619 | 34198 ft | 425 kts | 309° |
| 2026-04-16 12:38 | 51.96225 | 4.87602 | 34197 ft | 425 kts | 309° |
| 2026-04-16 12:38 | 52.00262 | 4.80536 | 34196 ft | 426 kts | 309° |
| 2026-04-16 12:39 | 52.04282 | 4.73480 | 34201 ft | 425 kts | 309° |
| 2026-04-16 12:39 | 52.08298 | 4.66411 | 34198 ft | 425 kts | 309° |
| 2026-04-16 12:40 | 52.12309 | 4.59331 | 34198 ft | 425 kts | 309° |
| 2026-04-16 12:40 | 52.16316 | 4.52237 | 34198 ft | 425 kts | 309° |
| 2026-04-16 12:41 | 52.20295 | 4.45173 | 34231 ft | 425 kts | 308° |
| 2026-04-16 12:41 | 52.24301 | 4.38040 | 34202 ft | 427 kts | 308° |
| 2026-04-16 12:42 | 52.28311 | 4.30880 | 34209 ft | 427 kts | 308° |
| 2026-04-16 12:42 | 52.32291 | 4.23753 | 34206 ft | 427 kts | 308° |
| 2026-04-16 12:43 | 52.36288 | 4.16574 | 34206 ft | 427 kts | 308° |
| 2026-04-16 12:43 | 52.40286 | 4.09372 | 34205 ft | 427 kts | 308° |
| 2026-04-16 12:44 | 52.44281 | 4.02156 | 34203 ft | 427 kts | 308° |
| 2026-04-16 12:44 | 52.48266 | 3.94937 | 34201 ft | 427 kts | 308° |
| 2026-04-16 12:45 | 52.52257 | 3.87684 | 34195 ft | 428 kts | 308° |
| 2026-04-16 12:45 | 52.56245 | 3.80418 | 34195 ft | 428 kts | 308° |
| 2026-04-16 12:46 | 52.60206 | 3.73179 | 34186 ft | 428 kts | 308° |
| 2026-04-16 12:46 | 52.64185 | 3.65886 | 34184 ft | 428 kts | 308° |
| 2026-04-16 12:47 | 52.68162 | 3.58575 | 34176 ft | 428 kts | 308° |
| 2026-04-16 12:47 | 52.72134 | 3.51251 | 34192 ft | 428 kts | 307° |
| 2026-04-16 12:48 | 52.76101 | 3.43916 | 34173 ft | 428 kts | 307° |
| 2026-04-16 12:48 | 52.80061 | 3.36571 | 34165 ft | 428 kts | 307° |
| 2026-04-16 12:49 | 52.84016 | 3.29212 | 34165 ft | 428 kts | 307° |
| 2026-04-16 12:49 | 52.87961 | 3.21831 | 34156 ft | 427 kts | 306° |
| 2026-04-16 12:50 | 52.91199 | 3.13751 | 34165 ft | 421 kts | 294° |
| 2026-04-16 12:50 | 52.92836 | 3.06186 | 34161 ft | 419 kts | 284° |
| 2026-04-16 12:51 | 52.94168 | 2.96784 | 34162 ft | 418 kts | 281° |
| 2026-04-16 12:51 | 52.95369 | 2.87365 | 34163 ft | 418 kts | 281° |
| 2026-04-16 12:52 | 52.96568 | 2.77935 | 34160 ft | 417 kts | 281° |
| 2026-04-16 12:52 | 52.97779 | 2.68508 | 34174 ft | 417 kts | 281° |
| 2026-04-16 12:53 | 52.98994 | 2.59060 | 34151 ft | 420 kts | 281° |
| 2026-04-16 12:53 | 53.00202 | 2.49603 | 34153 ft | 420 kts | 281° |
| 2026-04-16 12:54 | 53.01402 | 2.40149 | 34150 ft | 417 kts | 281° |
| 2026-04-16 12:54 | 53.02590 | 2.30721 | 34150 ft | 417 kts | 281° |
| 2026-04-16 12:55 | 53.03770 | 2.21285 | 34143 ft | 417 kts | 281° |
| 2026-04-16 12:55 | 53.04942 | 2.11851 | 34145 ft | 417 kts | 281° |
| 2026-04-16 12:56 | 53.06110 | 2.02404 | 34144 ft | 417 kts | 280° |
| 2026-04-16 12:56 | 53.07254 | 1.93057 | 34142 ft | 414 kts | 280° |
| 2026-04-16 12:57 | 53.08395 | 1.83667 | 34143 ft | 414 kts | 280° |
| 2026-04-16 12:57 | 53.09528 | 1.74281 | 34139 ft | 414 kts | 280° |
| 2026-04-16 12:58 | 53.10653 | 1.64899 | 34133 ft | 414 kts | 280° |
| 2026-04-16 12:58 | 53.11772 | 1.55501 | 34128 ft | 414 kts | 280° |
| 2026-04-16 12:59 | 53.12883 | 1.46113 | 34128 ft | 412 kts | 279° |
| 2026-04-16 13:00 | 53.14525 | 1.32098 | 34135 ft | 411 kts | 279° |
| 2026-04-16 13:00 | 53.15610 | 1.22756 | 34134 ft | 410 kts | 279° |
| 2026-04-16 13:01 | 53.16687 | 1.13411 | 34126 ft | 410 kts | 279° |
| 2026-04-16 13:01 | 53.17751 | 1.04117 | 34112 ft | 411 kts | 279° |
| 2026-04-16 13:02 | 53.18814 | 0.94763 | 34107 ft | 410 kts | 279° |
| 2026-04-16 13:02 | 53.19868 | 0.85419 | 34110 ft | 410 kts | 279° |
| 2026-04-16 13:03 | 53.20914 | 0.76074 | 34100 ft | 410 kts | 278° |
| 2026-04-16 13:03 | 53.21954 | 0.66712 | 34102 ft | 410 kts | 278° |
| 2026-04-16 13:04 | 53.22988 | 0.57349 | 34095 ft | 410 kts | 278° |
| 2026-04-16 13:04 | 53.24015 | 0.47982 | 34100 ft | 410 kts | 278° |
| 2026-04-16 13:05 | 53.25032 | 0.38627 | 34086 ft | 410 kts | 278° |
| 2026-04-16 13:05 | 53.26038 | 0.29252 | 34088 ft | 410 kts | 278° |
| 2026-04-16 13:06 | 53.27039 | 0.19869 | 34084 ft | 410 kts | 278° |
| 2026-04-16 13:06 | 53.28029 | 0.10537 | 34087 ft | 410 kts | 278° |
| 2026-04-16 13:07 | 53.29404 | 0.01265 | 33936 ft | 410 kts | 289° |
| 2026-04-16 13:07 | 53.30585 | -0.03077 | 33069 ft | 413 kts | 291° |
| 2026-04-16 13:07 | 53.31870 | -0.07447 | 31803 ft | 425 kts | 292° |
| 2026-04-16 13:07 | 53.33197 | -0.11935 | 30530 ft | 435 kts | 292° |
| 2026-04-16 13:08 | 53.34549 | -0.16526 | 29266 ft | 444 kts | 292° |
| 2026-04-16 13:08 | 53.35912 | -0.21176 | 28267 ft | 445 kts | 292° |
| 2026-04-16 13:08 | 53.37267 | -0.25815 | 27484 ft | 442 kts | 292° |
| 2026-04-16 13:08 | 53.38608 | -0.30424 | 26780 ft | 439 kts | 292° |
| 2026-04-16 13:09 | 53.39937 | -0.35006 | 26084 ft | 435 kts | 292° |
| 2026-04-16 13:09 | 53.41251 | -0.39552 | 25399 ft | 432 kts | 292° |
| 2026-04-16 13:09 | 53.42555 | -0.44072 | 24728 ft | 429 kts | 293° |
| 2026-04-16 13:09 | 53.43846 | -0.48558 | 24098 ft | 426 kts | 293° |
| 2026-04-16 13:10 | 53.45127 | -0.53016 | 23405 ft | 423 kts | 293° |
| 2026-04-16 13:10 | 53.46381 | -0.57389 | 22701 ft | 419 kts | 293° |
| 2026-04-16 13:10 | 53.47632 | -0.61757 | 22089 ft | 413 kts | 293° |
| 2026-04-16 13:10 | 53.48862 | -0.66064 | 21562 ft | 405 kts | 293° |
| 2026-04-16 13:11 | 53.50067 | -0.70287 | 21105 ft | 397 kts | 292° |
| 2026-04-16 13:11 | 53.51256 | -0.74467 | 20665 ft | 396 kts | 292° |
| 2026-04-16 13:11 | 53.52440 | -0.78637 | 20227 ft | 394 kts | 292° |
| 2026-04-16 13:11 | 53.53618 | -0.82795 | 19763 ft | 392 kts | 292° |
| 2026-04-16 13:12 | 53.54786 | -0.86922 | 19325 ft | 390 kts | 292° |
| 2026-04-16 13:12 | 53.55949 | -0.91038 | 18884 ft | 388 kts | 292° |
| 2026-04-16 13:12 | 53.57104 | -0.95134 | 18453 ft | 386 kts | 292° |
| 2026-04-16 13:12 | 53.58252 | -0.99212 | 17967 ft | 384 kts | 292° |
| 2026-04-16 13:13 | 53.59392 | -1.03265 | 17622 ft | 380 kts | 292° |
| 2026-04-16 13:13 | 53.60478 | -1.07271 | 17119 ft | 373 kts | 289° |
| 2026-04-16 13:13 | 53.61224 | -1.11339 | 16800 ft | 366 kts | 282° |
| 2026-04-16 13:13 | 53.61815 | -1.15499 | 16135 ft | 365 kts | 281° |
| 2026-04-16 13:14 | 53.62383 | -1.19686 | 15295 ft | 368 kts | 281° |
| 2026-04-16 13:14 | 53.62803 | -1.23904 | 14720 ft | 356 kts | 273° |
| 2026-04-16 13:14 | 53.62773 | -1.27914 | 14294 ft | 331 kts | 262° |
| 2026-04-16 13:14 | 53.62305 | -1.31586 | 13914 ft | 311 kts | 254° |
| 2026-04-16 13:15 | 53.61698 | -1.34965 | 13535 ft | 292 kts | 253° |
| 2026-04-16 13:15 | 53.61095 | -1.38124 | 13119 ft | 276 kts | 252° |
| 2026-04-16 13:15 | 53.60501 | -1.41172 | 12379 ft | 273 kts | 252° |
| 2026-04-16 13:15 | 53.59908 | -1.44189 | 11543 ft | 275 kts | 252° |
| 2026-04-16 13:16 | 53.59303 | -1.47244 | 10733 ft | 275 kts | 251° |
| 2026-04-16 13:16 | 53.58693 | -1.50300 | 9934 ft | 276 kts | 251° |
| 2026-04-16 13:16 | 53.58083 | -1.53354 | 9055 ft | 275 kts | 251° |
| 2026-04-16 13:16 | 53.57471 | -1.56405 | 8207 ft | 275 kts | 251° |
| 2026-04-16 13:17 | 53.56858 | -1.59455 | 7382 ft | 275 kts | 250° |
| 2026-04-16 13:17 | 53.56247 | -1.62495 | 6559 ft | 274 kts | 250° |
| 2026-04-16 13:17 | 53.55636 | -1.65519 | 5755 ft | 271 kts | 250° |
| 2026-04-16 13:17 | 53.55048 | -1.68438 | 5386 ft | 254 kts | 250° |
| 2026-04-16 13:18 | 53.54501 | -1.71153 | 5067 ft | 237 kts | 250° |
| 2026-04-16 13:18 | 53.53988 | -1.73687 | 4798 ft | 222 kts | 250° |
| 2026-04-16 13:18 | 53.53505 | -1.76074 | 4628 ft | 209 kts | 250° |
| 2026-04-16 13:18 | 53.53059 | -1.78283 | 4446 ft | 191 kts | 250° |
| 2026-04-16 13:19 | 53.52646 | -1.80312 | 4180 ft | 179 kts | 250° |
| 2026-04-16 13:19 | 53.52259 | -1.82216 | 3871 ft | 169 kts | 250° |
| 2026-04-16 13:19 | 53.51884 | -1.84067 | 3584 ft | 166 kts | 249° |
| 2026-04-16 13:19 | 53.51508 | -1.85897 | 3479 ft | 166 kts | 249° |
| 2026-04-16 13:20 | 53.51137 | -1.87715 | 3481 ft | 159 kts | 250° |
| 2026-04-16 13:20 | 53.50791 | -1.89409 | 3461 ft | 149 kts | 250° |
| 2026-04-16 13:20 | 53.50455 | -1.91059 | 3488 ft | 149 kts | 250° |
| 2026-04-16 13:20 | 53.50136 | -1.92641 | 3482 ft | 138 kts | 249° |
| 2026-04-16 13:21 | 53.49827 | -1.94145 | 3487 ft | 135 kts | 249° |
| 2026-04-16 13:21 | 53.49518 | -1.95641 | 3489 ft | 136 kts | 249° |
| 2026-04-16 13:21 | 53.49205 | -1.97161 | 3497 ft | 138 kts | 250° |
| 2026-04-16 13:21 | 53.48894 | -1.98681 | 3488 ft | 138 kts | 250° |
| 2026-04-16 13:22 | 53.48500 | -2.00149 | 3487 ft | 138 kts | 235° |
| 2026-04-16 13:22 | 53.47917 | -2.01429 | 3497 ft | 138 kts | 231° |
| 2026-04-16 13:22 | 53.47327 | -2.02707 | 3498 ft | 138 kts | 235° |
| 2026-04-16 13:22 | 53.46767 | -2.03962 | 3482 ft | 134 kts | 232° |
| 2026-04-16 13:23 | 53.46178 | -2.05182 | 3443 ft | 136 kts | 231° |
| 2026-04-16 13:23 | 53.45581 | -2.06424 | 3268 ft | 137 kts | 231° |
| 2026-04-16 13:23 | 53.44983 | -2.07677 | 3080 ft | 137 kts | 230° |
| 2026-04-16 13:23 | 53.44394 | -2.08898 | 2880 ft | 133 kts | 230° |
| 2026-04-16 13:24 | 53.43812 | -2.10101 | 2712 ft | 133 kts | 230° |
| 2026-04-16 13:24 | 53.43229 | -2.11305 | 2549 ft | 132 kts | 230° |
| 2026-04-16 13:24 | 53.42657 | -2.12489 | 2382 ft | 129 kts | 231° |
| 2026-04-16 13:24 | 53.42094 | -2.13653 | 2196 ft | 128 kts | 230° |
| 2026-04-16 13:25 | 53.41536 | -2.14804 | 2013 ft | 127 kts | 230° |
| 2026-04-16 13:25 | 53.40976 | -2.15961 | 1843 ft | 128 kts | 229° |
| 2026-04-16 13:25 | 53.40413 | -2.17124 | 1673 ft | 129 kts | 229° |
| 2026-04-16 13:25 | 53.39852 | -2.18280 | 1486 ft | 130 kts | 229° |
| 2026-04-16 13:26 | 53.39278 | -2.19464 | 1314 ft | 127 kts | 230° |
| 2026-04-16 13:26 | 53.38727 | -2.20601 | 1123 ft | 126 kts | 230° |
| 2026-04-16 13:26 | 53.38172 | -2.21746 | 953 ft | 129 kts | 230° |
| 2026-04-16 13:26 | 53.37595 | -2.22935 | 764 ft | 134 kts | 230° |
| 2026-04-16 13:27 | 53.37008 | -2.24144 | 589 ft | 133 kts | 231° |
| 2026-04-16 13:27 | 53.36418 | -2.25335 | 389 ft | 132 kts | 228° |
| 2026-04-16 13:27 | 53.35845 | -2.26495 | 276 ft | 115 kts | 232° |
| 2026-04-16 13:27 | 53.35529 | -2.27171 | 256 ft | 42 kts | 231° |
| 2026-04-16 13:28 | 53.35351 | -2.27542 | 249 ft | 35 kts | 231° |
| 2026-04-16 13:28 | 53.35254 | -2.27901 | 242 ft | 34 kts | 259° |
| 2026-04-16 13:28 | 53.35244 | -2.27994 | 240 ft | 0 kts | 261° |
| 2026-04-16 13:28 | 53.38443 | -2.21186 | 1036 ft | 126 kts | 231° |
| 2026-04-16 13:29 | 53.38073 | -2.21967 | 677 ft | 137 kts | 234° |
| 2026-04-16 13:29 | 53.37393 | -2.23333 | 672 ft | 171 kts | 224° |
| 2026-04-16 13:29 | 53.36627 | -2.24874 | 422 ft | 173 kts | 233° |
| 2026-04-16 13:29 | 53.35917 | -2.26369 | 309 ft | 154 kts | 231° |
| 2026-04-16 13:30 | 53.35291 | -2.27681 | 251 ft | 133 kts | 229° |
| 2026-04-16 13:30 | 53.34916 | -2.28437 | 239 ft | 34 kts | 232° |
| 2026-04-16 13:30 | 53.34885 | -2.28508 | 237 ft | 0 kts | 240° |
| 2026-04-16 13:30 | 53.34914 | -2.28670 | 239 ft | 17 kts | 314° |
| 2026-04-16 13:31 | 53.34928 | -2.28693 | 239 ft | 0 kts | 315° |